sensor_id;sensor_type;location;lat;lon;timestamp;pressure;altitude;pressure_sealevel;temperature;humidity
45369;BME280;51342;55.250;37.668;2023-09-19T00:04:08;100117.53;;;9.02;76.32
45369;BME280;51342;55.250;37.668;2023-09-19T00:06:40;100114.38;;;8.95;76.18
45369;BME280;51342;55.250;37.668;2023-09-19T00:09:12;100109.13;;;8.93;76.03
45369;BME280;51342;55.250;37.668;2023-09-19T00:11:43;100104.44;;;8.88;76.19
45369;BME280;51342;55.250;37.668;2023-09-19T00:14:15;100101.06;;;8.89;76.43
45369;BME280;51342;55.250;37.668;2023-09-19T00:16:46;100104.44;;;8.88;76.79
45369;BME280;51342;55.250;37.668;2023-09-19T00:19:18;100102.75;;;8.88;76.75
45369;BME280;51342;55.250;37.668;2023-09-19T00:21:49;100108.13;;;8.91;77.29
45369;BME280;51342;55.250;37.668;2023-09-19T00:24:20;100107.69;;;8.97;77.17
45369;BME280;51342;55.250;37.668;2023-09-19T00:26:54;100106.19;;;9.00;77.55
45369;BME280;51342;55.250;37.668;2023-09-19T00:29:26;100093.09;;;8.97;77.39
45369;BME280;51342;55.250;37.668;2023-09-19T00:32:02;100079.28;;;8.97;77.64
45369;BME280;51342;55.250;37.668;2023-09-19T00:34:34;100098.09;;;9.08;77.54
45369;BME280;51342;55.250;37.668;2023-09-19T00:37:06;100099.97;;;9.10;77.87
45369;BME280;51342;55.250;37.668;2023-09-19T00:39:38;100100.88;;;9.11;77.99
45369;BME280;51342;55.250;37.668;2023-09-19T00:42:18;100100.50;;;9.18;78.31
45369;BME280;51342;55.250;37.668;2023-09-19T00:44:50;100110.00;;;9.31;79.19
45369;BME280;51342;55.250;37.668;2023-09-19T00:47:22;100116.69;;;9.40;79.36
45369;BME280;51342;55.250;37.668;2023-09-19T00:49:53;100109.16;;;9.43;79.18
45369;BME280;51342;55.250;37.668;2023-09-19T00:52:25;100110.16;;;9.45;79.08
45369;BME280;51342;55.250;37.668;2023-09-19T00:54:56;100107.56;;;9.45;79.27
45369;BME280;51342;55.250;37.668;2023-09-19T00:57:29;100111.25;;;9.49;78.88
45369;BME280;51342;55.250;37.668;2023-09-19T01:00:01;100113.75;;;9.47;78.93
45369;BME280;51342;55.250;37.668;2023-09-19T01:02:44;100114.75;;;9.49;79.05
45369;BME280;51342;55.250;37.668;2023-09-19T01:05:17;100112.06;;;9.48;79.04
45369;BME280;51342;55.250;37.668;2023-09-19T01:07:49;100120.88;;;9.51;78.81
45369;BME280;51342;55.250;37.668;2023-09-19T01:10:22;100115.06;;;9.54;78.89
45369;BME280;51342;55.250;37.668;2023-09-19T01:18:55;100114.75;;;9.49;79.37
45369;BME280;51342;55.250;37.668;2023-09-19T01:29:51;100103.69;;;9.52;79.67
45369;BME280;51342;55.250;37.668;2023-09-19T01:32:25;100103.94;;;9.55;79.84
45369;BME280;51342;55.250;37.668;2023-09-19T01:34:57;100099.44;;;9.52;79.47
45369;BME280;51342;55.250;37.668;2023-09-19T01:37:35;100096.56;;;9.48;79.60
45369;BME280;51342;55.250;37.668;2023-09-19T01:40:08;100095.66;;;9.47;79.88
45369;BME280;51342;55.250;37.668;2023-09-19T01:43:07;100092.88;;;9.44;79.50
45369;BME280;51342;55.250;37.668;2023-09-19T01:46:12;100084.88;;;9.41;79.64
45369;BME280;51342;55.250;37.668;2023-09-19T01:49:05;100083.53;;;9.46;80.01
45369;BME280;51342;55.250;37.668;2023-09-19T01:51:58;100077.69;;;9.49;80.19
45369;BME280;51342;55.250;37.668;2023-09-19T01:54:39;100068.44;;;9.52;80.40
45369;BME280;51342;55.250;37.668;2023-09-19T01:57:17;100073.81;;;9.55;80.61
45369;BME280;51342;55.250;37.668;2023-09-19T01:59:59;100067.19;;;9.59;81.02
45369;BME280;51342;55.250;37.668;2023-09-19T02:02:46;100070.03;;;9.64;81.25
45369;BME280;51342;55.250;37.668;2023-09-19T02:05:25;100073.75;;;9.67;81.67
45369;BME280;51342;55.250;37.668;2023-09-19T02:07:57;100071.47;;;9.72;82.08
45369;BME280;51342;55.250;37.668;2023-09-19T02:10:29;100077.84;;;9.77;82.00
45369;BME280;51342;55.250;37.668;2023-09-19T02:13:01;100077.22;;;9.81;82.38
45369;BME280;51342;55.250;37.668;2023-09-19T02:15:35;100073.25;;;9.86;82.33
45369;BME280;51342;55.250;37.668;2023-09-19T02:18:09;100079.22;;;9.85;82.35
45369;BME280;51342;55.250;37.668;2023-09-19T02:20:41;100072.59;;;9.89;82.90
45369;BME280;51342;55.250;37.668;2023-09-19T02:23:14;100071.78;;;9.90;82.71
45369;BME280;51342;55.250;37.668;2023-09-19T02:25:59;100069.91;;;9.87;83.06
45369;BME280;51342;55.250;37.668;2023-09-19T02:28:34;100065.72;;;9.89;82.81
45369;BME280;51342;55.250;37.668;2023-09-19T02:31:06;100056.19;;;9.88;82.72
45369;BME280;51342;55.250;37.668;2023-09-19T02:33:38;100059.56;;;9.87;83.06
45369;BME280;51342;55.250;37.668;2023-09-19T02:36:10;100055.38;;;9.89;83.18
45369;BME280;51342;55.250;37.668;2023-09-19T02:38:41;100048.44;;;9.88;83.19
45369;BME280;51342;55.250;37.668;2023-09-19T02:41:13;100057.97;;;9.89;83.45
45369;BME280;51342;55.250;37.668;2023-09-19T02:43:45;100057.16;;;9.90;83.40
45369;BME280;51342;55.250;37.668;2023-09-19T02:46:16;100044.25;;;9.90;83.22
45369;BME280;51342;55.250;37.668;2023-09-19T02:48:48;100052.91;;;9.91;83.16
45369;BME280;51342;55.250;37.668;2023-09-19T02:51:19;100053.78;;;9.91;83.57
45369;BME280;51342;55.250;37.668;2023-09-19T02:53:51;100052.00;;;9.90;83.50
45369;BME280;51342;55.250;37.668;2023-09-19T02:56:25;100052.00;;;9.90;83.25
45369;BME280;51342;55.250;37.668;2023-09-19T02:58:57;100056.28;;;9.90;82.89
45369;BME280;51342;55.250;37.668;2023-09-19T03:01:29;100055.38;;;9.89;82.75
45369;BME280;51342;55.250;37.668;2023-09-19T03:04:01;100051.91;;;9.89;82.73
45369;BME280;51342;55.250;37.668;2023-09-19T03:06:33;100048.22;;;9.85;82.86
45369;BME280;51342;55.250;37.668;2023-09-19T03:09:04;100056.19;;;9.88;82.79
45369;BME280;51342;55.250;37.668;2023-09-19T03:11:43;100043.84;;;9.84;82.77
45369;BME280;51342;55.250;37.668;2023-09-19T03:14:15;100048.31;;;9.87;82.85
45369;BME280;51342;55.250;37.668;2023-09-19T03:16:47;100047.63;;;9.89;83.08
45369;BME280;51342;55.250;37.668;2023-09-19T03:19:20;100047.72;;;9.91;82.97
45369;BME280;51342;55.250;37.668;2023-09-19T03:21:52;100041.00;;;9.93;82.87
45369;BME280;51342;55.250;37.668;2023-09-19T03:24:25;100047.31;;;9.98;83.00
45369;BME280;51342;55.250;37.668;2023-09-19T03:26:57;100043.25;;;10.01;83.14
45369;BME280;51342;55.250;37.668;2023-09-19T03:29:29;100040.19;;;10.07;83.60
45369;BME280;51342;55.250;37.668;2023-09-19T03:32:02;100042.25;;;10.13;83.95
45369;BME280;51342;55.250;37.668;2023-09-19T03:34:36;100037.56;;;10.20;84.22
45369;BME280;51342;55.250;37.668;2023-09-19T03:37:09;100038.19;;;10.29;84.24
45369;BME280;51342;55.250;37.668;2023-09-19T03:39:42;100033.41;;;10.35;84.62
45369;BME280;51342;55.250;37.668;2023-09-19T03:42:13;100034.81;;;10.44;84.99
45369;BME280;51342;55.250;37.668;2023-09-19T03:44:44;100040.47;;;10.51;85.41
45369;BME280;51342;55.250;37.668;2023-09-19T03:47:16;100035.56;;;10.56;85.27
45369;BME280;51342;55.250;37.668;2023-09-19T03:49:47;100036.84;;;10.63;85.55
45369;BME280;51342;55.250;37.668;2023-09-19T03:52:19;100046.59;;;10.67;85.37
45369;BME280;51342;55.250;37.668;2023-09-19T03:54:50;100052.16;;;10.73;85.46
45369;BME280;51342;55.250;37.668;2023-09-19T03:57:22;100045.38;;;10.75;85.55
45369;BME280;51342;55.250;37.668;2023-09-19T03:59:53;100042.25;;;10.80;85.67
45369;BME280;51342;55.250;37.668;2023-09-19T04:02:25;100039.97;;;10.85;85.72
45369;BME280;51342;55.250;37.668;2023-09-19T04:04:56;100039.31;;;10.89;85.73
45369;BME280;51342;55.250;37.668;2023-09-19T04:07:27;100026.50;;;10.91;85.84
45369;BME280;51342;55.250;37.668;2023-09-19T04:10:00;100031.25;;;10.98;85.77
45369;BME280;51342;55.250;37.668;2023-09-19T04:12:34;100022.75;;;11.00;85.89
45369;BME280;51342;55.250;37.668;2023-09-19T04:15:06;100023.31;;;11.09;85.95
45369;BME280;51342;55.250;37.668;2023-09-19T04:17:38;100017.53;;;11.13;85.82
45369;BME280;51342;55.250;37.668;2023-09-19T04:20:09;100022.09;;;11.18;85.59
45369;BME280;51342;55.250;37.668;2023-09-19T04:22:43;100017.19;;;11.22;85.99
45369;BME280;51342;55.250;37.668;2023-09-19T04:25:14;100016.41;;;11.23;86.04
45369;BME280;51342;55.250;37.668;2023-09-19T04:27:46;100026.22;;;11.29;85.77
45369;BME280;51342;55.250;37.668;2023-09-19T04:30:17;100024.63;;;11.31;85.76
45369;BME280;51342;55.250;37.668;2023-09-19T04:32:49;100035.41;;;11.38;86.13
45369;BME280;51342;55.250;37.668;2023-09-19T04:35:21;100026.06;;;11.40;85.97
45369;BME280;51342;55.250;37.668;2023-09-19T04:37:53;100039.44;;;11.48;85.84
45369;BME280;51342;55.250;37.668;2023-09-19T04:40:25;100030.06;;;11.50;85.91
45369;BME280;51342;55.250;37.668;2023-09-19T04:42:57;100029.44;;;11.54;85.52
45369;BME280;51342;55.250;37.668;2023-09-19T04:45:29;100024.47;;;11.57;85.20
45369;BME280;51342;55.250;37.668;2023-09-19T04:48:00;100012.47;;;11.59;85.20
45369;BME280;51342;55.250;37.668;2023-09-19T04:50:32;100010.03;;;11.62;85.45
45369;BME280;51342;55.250;37.668;2023-09-19T04:53:05;100016.22;;;11.64;85.20
45369;BME280;51342;55.250;37.668;2023-09-19T04:55:38;100027.75;;;11.70;85.39
45369;BME280;51342;55.250;37.668;2023-09-19T04:58:09;100026.31;;;11.75;85.29
45369;BME280;51342;55.250;37.668;2023-09-19T05:00:41;100027.44;;;11.80;85.22
45369;BME280;51342;55.250;37.668;2023-09-19T05:03:12;100021.59;;;11.82;84.85
45369;BME280;51342;55.250;37.668;2023-09-19T05:05:44;100026.16;;;11.86;85.13
45369;BME280;51342;55.250;37.668;2023-09-19T05:08:15;100023.72;;;11.89;84.63
45369;BME280;51342;55.250;37.668;2023-09-19T05:10:47;100015.16;;;11.90;84.82
45369;BME280;51342;55.250;37.668;2023-09-19T05:13:18;100019.44;;;11.90;84.41
45369;BME280;51342;55.250;37.668;2023-09-19T05:15:49;100016.41;;;11.97;84.47
45369;BME280;51342;55.250;37.668;2023-09-19T05:18:21;100012.19;;;11.99;84.42
45369;BME280;51342;55.250;37.668;2023-09-19T05:20:53;100009.75;;;12.02;84.50
45369;BME280;51342;55.250;37.668;2023-09-19T05:23:25;100012.72;;;12.08;84.24
45369;BME280;51342;55.250;37.668;2023-09-19T05:25:58;100012.00;;;12.11;83.88
45369;BME280;51342;55.250;37.668;2023-09-19T05:28:31;100012.06;;;12.12;83.93
45369;BME280;51342;55.250;37.668;2023-09-19T05:31:03;100000.81;;;12.12;83.89
45369;BME280;51342;55.250;37.668;2023-09-19T05:33:34;100010.63;;;12.17;83.98
45369;BME280;51342;55.250;37.668;2023-09-19T05:36:06;100009.09;;;12.21;84.08
45369;BME280;51342;55.250;37.668;2023-09-19T05:38:37;100012.03;;;12.27;83.61
45369;BME280;51342;55.250;37.668;2023-09-19T05:41:11;100010.16;;;12.25;83.46
45369;BME280;51342;55.250;37.668;2023-09-19T05:43:44;100013.75;;;12.27;83.61
45369;BME280;51342;55.250;37.668;2023-09-19T05:46:16;100009.53;;;12.29;83.15
45369;BME280;51342;55.250;37.668;2023-09-19T05:48:48;100001.91;;;12.32;83.28
45369;BME280;51342;55.250;37.668;2023-09-19T05:51:21;100006.44;;;12.36;83.40
45369;BME280;51342;55.250;37.668;2023-09-19T05:53:53;100005.00;;;12.41;83.47
45369;BME280;51342;55.250;37.668;2023-09-19T05:56:25;99999.25;;;12.46;83.39
45369;BME280;51342;55.250;37.668;2023-09-19T05:58:57;100007.56;;;12.56;83.37
45369;BME280;51342;55.250;37.668;2023-09-19T06:01:28;100001.78;;;12.61;82.88
45369;BME280;51342;55.250;37.668;2023-09-19T06:03:59;100012.66;;;12.70;82.99
45369;BME280;51342;55.250;37.668;2023-09-19T06:06:31;100013.00;;;12.77;82.49
45369;BME280;51342;55.250;37.668;2023-09-19T06:09:05;100010.56;;;12.80;82.65
45369;BME280;51342;55.250;37.668;2023-09-19T06:11:37;100009.28;;;12.88;82.41
45369;BME280;51342;55.250;37.668;2023-09-19T06:14:08;100005.38;;;12.96;82.52
45369;BME280;51342;55.250;37.668;2023-09-19T06:16:41;100005.75;;;13.04;81.82
45369;BME280;51342;55.250;37.668;2023-09-19T06:19:13;100001.44;;;13.04;81.81
45369;BME280;51342;55.250;37.668;2023-09-19T06:21:44;99999.03;;;13.07;81.47
45369;BME280;51342;55.250;37.668;2023-09-19T06:24:16;100000.88;;;13.10;81.42
45369;BME280;51342;55.250;37.668;2023-09-19T06:26:47;100002.13;;;13.16;81.42
45369;BME280;51342;55.250;37.668;2023-09-19T06:29:20;99998.06;;;13.21;81.01
45369;BME280;51342;55.250;37.668;2023-09-19T06:31:54;100000.06;;;13.27;80.71
45369;BME280;51342;55.250;37.668;2023-09-19T06:34:25;99997.97;;;13.36;80.66
45369;BME280;51342;55.250;37.668;2023-09-19T06:36:57;99990.41;;;13.41;80.59
45369;BME280;51342;55.250;37.668;2023-09-19T06:39:29;99994.94;;;13.45;80.13
45369;BME280;51342;55.250;37.668;2023-09-19T06:42:02;99991.47;;;13.44;80.21
45369;BME280;51342;55.250;37.668;2023-09-19T06:44:33;99994.13;;;13.46;79.91
45369;BME280;51342;55.250;37.668;2023-09-19T06:47:05;99996.03;;;13.50;79.50
45369;BME280;51342;55.250;37.668;2023-09-19T06:49:37;99992.84;;;13.56;79.43
45369;BME280;51342;55.250;37.668;2023-09-19T06:52:09;99986.19;;;13.61;79.17
45369;BME280;51342;55.250;37.668;2023-09-19T06:54:41;99996.88;;;13.67;79.18
45369;BME280;51342;55.250;37.668;2023-09-19T06:57:12;99982.50;;;13.73;79.01
45369;BME280;51342;55.250;37.668;2023-09-19T06:59:45;99984.53;;;13.79;78.59
45369;BME280;51342;55.250;37.668;2023-09-19T07:02:17;99984.41;;;13.95;79.02
45369;BME280;51342;55.250;37.668;2023-09-19T07:04:50;99971.53;;;14.16;78.44
45369;BME280;51342;55.250;37.668;2023-09-19T07:07:22;99976.59;;;14.31;77.70
45369;BME280;51342;55.250;37.668;2023-09-19T07:09:54;99969.06;;;14.37;76.92
45369;BME280;51342;55.250;37.668;2023-09-19T07:12:25;99966.53;;;14.39;76.80
45369;BME280;51342;55.250;37.668;2023-09-19T07:14:57;99963.94;;;14.39;76.67
45369;BME280;51342;55.250;37.668;2023-09-19T07:17:28;99975.28;;;14.41;75.99
45369;BME280;51342;55.250;37.668;2023-09-19T07:20:00;99986.53;;;14.40;75.92
45369;BME280;51342;55.250;37.668;2023-09-19T07:22:33;99986.53;;;14.40;75.93
45369;BME280;51342;55.250;37.668;2023-09-19T07:25:05;99984.03;;;14.41;75.89
45369;BME280;51342;55.250;37.668;2023-09-19T07:27:36;99993.91;;;14.48;76.08
45369;BME280;51342;55.250;37.668;2023-09-19T07:30:09;99993.44;;;14.57;75.51
45369;BME280;51342;55.250;37.668;2023-09-19T07:32:43;99996.31;;;14.63;75.32
45369;BME280;51342;55.250;37.668;2023-09-19T07:35:15;99995.91;;;14.73;75.40
45369;BME280;51342;55.250;37.668;2023-09-19T07:37:48;99987.09;;;14.89;75.45
45369;BME280;51342;55.250;37.668;2023-09-19T07:40:28;99979.41;;;15.11;75.40
45369;BME280;51342;55.250;37.668;2023-09-19T07:43:01;99979.19;;;15.26;74.17
45369;BME280;51342;55.250;37.668;2023-09-19T07:45:32;99980.00;;;15.46;73.99
45369;BME280;51342;55.250;37.668;2023-09-19T07:48:05;99971.34;;;15.67;73.54
45369;BME280;51342;55.250;37.668;2023-09-19T07:50:37;99966.47;;;15.76;72.61
45369;BME280;51342;55.250;37.668;2023-09-19T07:53:08;99966.88;;;15.85;72.44
45369;BME280;51342;55.250;37.668;2023-09-19T07:55:40;99959.34;;;15.93;72.01
45369;BME280;51342;55.250;37.668;2023-09-19T07:58:12;99959.81;;;16.05;71.91
45369;BME280;51342;55.250;37.668;2023-09-19T08:00:44;99954.97;;;16.14;71.07
45369;BME280;51342;55.250;37.668;2023-09-19T08:03:17;99959.53;;;16.20;70.93
45369;BME280;51342;55.250;37.668;2023-09-19T08:05:49;99952.88;;;16.28;70.06
45369;BME280;51342;55.250;37.668;2023-09-19T08:08:21;99958.41;;;16.35;70.56
45369;BME280;51342;55.250;37.668;2023-09-19T08:10:56;99947.81;;;16.55;70.99
45369;BME280;51342;55.250;37.668;2023-09-19T08:13:28;99947.84;;;16.79;70.38
45369;BME280;51342;55.250;37.668;2023-09-19T08:15:59;99943.41;;;17.00;70.10
45369;BME280;51342;55.250;37.668;2023-09-19T08:18:31;99946.44;;;17.12;69.52
45369;BME280;51342;55.250;37.668;2023-09-19T08:21:03;99940.91;;;17.29;68.85
45369;BME280;51342;55.250;37.668;2023-09-19T08:23:37;99930.63;;;17.33;67.21
45369;BME280;51342;55.250;37.668;2023-09-19T08:26:13;99925.44;;;17.35;67.85
45369;BME280;51342;55.250;37.668;2023-09-19T08:28:44;99916.69;;;17.34;67.44
45369;BME280;51342;55.250;37.668;2023-09-19T08:31:16;99923.56;;;17.31;66.73
45369;BME280;51342;55.250;37.668;2023-09-19T08:33:50;99928.88;;;17.34;67.40
45369;BME280;51342;55.250;37.668;2023-09-19T08:36:22;99929.25;;;17.44;67.19
45369;BME280;51342;55.250;37.668;2023-09-19T08:38:54;99938.47;;;17.59;67.33
45369;BME280;51342;55.250;37.668;2023-09-19T08:41:26;99932.75;;;17.70;67.56
45369;BME280;51342;55.250;37.668;2023-09-19T08:44:00;99934.59;;;17.73;66.76
45369;BME280;51342;55.250;37.668;2023-09-19T08:46:34;99926.09;;;17.80;66.46
45369;BME280;51342;55.250;37.668;2023-09-19T08:49:28;99928.84;;;17.85;66.25
45369;BME280;51342;55.250;37.668;2023-09-19T08:52:24;99924.69;;;17.91;66.32
45369;BME280;51342;55.250;37.668;2023-09-19T08:55:01;99920.50;;;17.96;65.66
45369;BME280;51342;55.250;37.668;2023-09-19T08:57:38;99921.44;;;17.98;66.06
45369;BME280;51342;55.250;37.668;2023-09-19T09:00:14;99926.75;;;18.01;65.94
45369;BME280;51342;55.250;37.668;2023-09-19T09:02:50;99930.38;;;18.05;65.98
45369;BME280;51342;55.250;37.668;2023-09-19T09:05:27;99927.91;;;18.10;65.31
45369;BME280;51342;55.250;37.668;2023-09-19T09:08:05;99922.91;;;18.17;65.79
45369;BME280;51342;55.250;37.668;2023-09-19T09:10:38;99923.06;;;18.23;65.78
45369;BME280;51342;55.250;37.668;2023-09-19T09:13:12;99920.81;;;18.36;65.15
45369;BME280;51342;55.250;37.668;2023-09-19T09:15:45;99919.38;;;18.45;64.03
45369;BME280;51342;55.250;37.668;2023-09-19T09:18:19;99913.25;;;18.45;64.63
45369;BME280;51342;55.250;37.668;2023-09-19T09:20:51;99913.94;;;18.39;63.85
45369;BME280;51342;55.250;37.668;2023-09-19T09:23:29;99923.19;;;18.26;63.48
45369;BME280;51342;55.250;37.668;2023-09-19T09:26:05;99927.28;;;18.18;64.15
45369;BME280;51342;55.250;37.668;2023-09-19T09:28:45;99919.25;;;18.12;64.21
45369;BME280;51342;55.250;37.668;2023-09-19T09:31:23;99909.56;;;18.10;64.97
45369;BME280;51342;55.250;37.668;2023-09-19T09:33:59;99915.97;;;18.19;65.79
45369;BME280;51342;55.250;37.668;2023-09-19T09:36:40;99914.34;;;18.23;64.96
45369;BME280;51342;55.250;37.668;2023-09-19T09:39:13;99904.88;;;18.28;64.65
45369;BME280;51342;55.250;37.668;2023-09-19T09:42:01;99905.03;;;18.33;64.92
45369;BME280;51342;55.250;37.668;2023-09-19T09:44:40;99908.78;;;18.42;64.88
45369;BME280;51342;55.250;37.668;2023-09-19T09:47:48;99891.56;;;18.50;64.81
45369;BME280;51342;55.250;37.668;2023-09-19T09:50:35;99895.38;;;18.62;64.19
45369;BME280;51342;55.250;37.668;2023-09-19T09:53:24;99883.50;;;18.73;64.81
45369;BME280;51342;55.250;37.668;2023-09-19T09:56:08;99885.47;;;18.82;64.06
45369;BME280;51342;55.250;37.668;2023-09-19T09:58:52;99885.69;;;18.89;63.62
45369;BME280;51342;55.250;37.668;2023-09-19T10:01:27;99894.53;;;18.94;63.87
45369;BME280;51342;55.250;37.668;2023-09-19T10:04:05;99888.66;;;19.03;64.14
45369;BME280;51342;55.250;37.668;2023-09-19T10:06:44;99884.50;;;19.11;64.02
45369;BME280;51342;55.250;37.668;2023-09-19T10:09:22;99877.72;;;19.19;63.82
45369;BME280;51342;55.250;37.668;2023-09-19T10:12:06;99876.97;;;19.23;62.80
45369;BME280;51342;55.250;37.668;2023-09-19T10:14:47;99880.56;;;19.28;63.00
45369;BME280;51342;55.250;37.668;2023-09-19T10:17:24;99873.66;;;19.32;63.46
45369;BME280;51342;55.250;37.668;2023-09-19T10:20:00;99868.03;;;19.17;63.76
45369;BME280;51342;55.250;37.668;2023-09-19T10:22:49;99863.19;;;19.32;63.71
45369;BME280;51342;55.250;37.668;2023-09-19T10:25:47;99860.69;;;19.38;63.51
45369;BME280;51342;55.250;37.668;2023-09-19T10:28:21;99864.31;;;19.43;63.63
45369;BME280;51342;55.250;37.668;2023-09-19T10:31:02;99859.19;;;19.48;63.29
45369;BME280;51342;55.250;37.668;2023-09-19T10:33:36;99853.09;;;19.49;62.82
45369;BME280;51342;55.250;37.668;2023-09-19T10:36:14;99854.09;;;19.54;62.89
45369;BME280;51342;55.250;37.668;2023-09-19T10:38:50;99846.25;;;19.55;62.90
45369;BME280;51342;55.250;37.668;2023-09-19T10:41:32;99847.28;;;19.61;62.99
45369;BME280;51342;55.250;37.668;2023-09-19T10:44:09;99841.31;;;19.68;62.67
45369;BME280;51342;55.250;37.668;2023-09-19T10:46:42;99835.31;;;19.73;63.04
45369;BME280;51342;55.250;37.668;2023-09-19T10:49:18;99836.28;;;19.77;62.90
45369;BME280;51342;55.250;37.668;2023-09-19T10:52:03;99838.13;;;19.81;62.83
45369;BME280;51342;55.250;37.668;2023-09-19T10:54:47;99838.28;;;19.87;62.71
45369;BME280;51342;55.250;37.668;2023-09-19T10:57:34;99826.06;;;19.91;62.30
45369;BME280;51342;55.250;37.668;2023-09-19T11:00:15;99824.38;;;19.91;62.62
45369;BME280;51342;55.250;37.668;2023-09-19T11:08:59;99812.31;;;20.02;61.82
45369;BME280;51342;55.250;37.668;2023-09-19T11:11:48;99813.31;;;20.07;62.19
45369;BME280;51342;55.250;37.668;2023-09-19T11:14:41;99810.75;;;20.10;61.76
45369;BME280;51342;55.250;37.668;2023-09-19T11:30:51;99797.06;;;20.25;61.04
45369;BME280;51342;55.250;37.668;2023-09-19T11:33:33;99784.81;;;20.27;61.76
45369;BME280;51342;55.250;37.668;2023-09-19T11:36:15;99790.28;;;20.36;61.87
45369;BME280;51342;55.250;37.668;2023-09-19T11:41:36;99801.03;;;20.49;62.77
45369;BME280;51342;55.250;37.668;2023-09-19T11:47:02;99795.84;;;20.52;61.41
45369;BME280;51342;55.250;37.668;2023-09-19T11:49:52;99796.78;;;20.54;61.91
45369;BME280;51342;55.250;37.668;2023-09-19T11:52:34;99791.56;;;20.58;61.64
45369;BME280;51342;55.250;37.668;2023-09-19T11:55:13;99789.88;;;20.60;61.88
45369;BME280;51342;55.250;37.668;2023-09-19T11:57:58;99784.72;;;20.67;61.29
45369;BME280;51342;55.250;37.668;2023-09-19T12:00:45;99787.38;;;20.70;61.35
45369;BME280;51342;55.250;37.668;2023-09-19T12:03:29;99794.44;;;20.71;62.16
45369;BME280;51342;55.250;37.668;2023-09-19T12:06:11;99768.03;;;20.64;60.45
45369;BME280;51342;55.250;37.668;2023-09-19T12:08:52;99776.63;;;20.54;61.81
45369;BME280;51342;55.250;37.668;2023-09-19T12:11:30;99781.22;;;20.68;61.11
45369;BME280;51342;55.250;37.668;2023-09-19T12:14:08;99774.34;;;20.74;61.44
45369;BME280;51342;55.250;37.668;2023-09-19T12:16:58;99766.44;;;20.74;60.87
45369;BME280;51342;55.250;37.668;2023-09-19T12:19:35;99761.25;;;20.77;61.11
45369;BME280;51342;55.250;37.668;2023-09-19T12:22:07;99763.03;;;20.78;60.81
45369;BME280;51342;55.250;37.668;2023-09-19T12:24:48;99766.53;;;20.79;61.17
45369;BME280;51342;55.250;37.668;2023-09-19T12:27:41;99761.28;;;20.80;61.58
45369;BME280;51342;55.250;37.668;2023-09-19T12:30:27;99758.63;;;20.77;61.67
45369;BME280;51342;55.250;37.668;2023-09-19T12:33:19;99761.09;;;20.70;61.42
45369;BME280;51342;55.250;37.668;2023-09-19T12:35:58;99766.53;;;20.79;61.99
45369;BME280;51342;55.250;37.668;2023-09-19T12:38:37;99761.44;;;20.88;61.52
45369;BME280;51342;55.250;37.668;2023-09-19T12:41:21;99760.59;;;20.92;61.01
45369;BME280;51342;55.250;37.668;2023-09-19T12:43:56;99756.28;;;20.94;61.12
45369;BME280;51342;55.250;37.668;2023-09-19T12:46:30;99765.06;;;20.95;61.98
45369;BME280;51342;55.250;37.668;2023-09-19T12:49:18;99750.94;;;20.89;61.86
45369;BME280;51342;55.250;37.668;2023-09-19T12:51:55;99743.84;;;20.85;61.95
45369;BME280;51342;55.250;37.668;2023-09-19T12:54:43;99750.88;;;20.86;60.62
45369;BME280;51342;55.250;37.668;2023-09-19T12:57:26;99738.59;;;20.87;60.48
45369;BME280;51342;55.250;37.668;2023-09-19T13:00:01;99745.63;;;20.86;59.68
45369;BME280;51342;55.250;37.668;2023-09-19T13:03:18;99747.22;;;20.77;60.51
45369;BME280;51342;55.250;37.668;2023-09-19T13:05:58;99747.16;;;20.74;61.77
45369;BME280;51342;55.250;37.668;2023-09-19T13:08:37;99746.22;;;20.70;61.56
45369;BME280;51342;55.250;37.668;2023-09-19T13:11:14;99739.16;;;20.68;62.63
45369;BME280;51342;55.250;37.668;2023-09-19T13:14:26;99741.59;;;20.57;62.53
45369;BME280;51342;55.250;37.668;2023-09-19T13:17:04;99740.78;;;20.59;62.62
45369;BME280;51342;55.250;37.668;2023-09-19T13:19:44;99738.13;;;20.58;62.73
45369;BME280;51342;55.250;37.668;2023-09-19T13:22:47;99730.97;;;20.51;61.20
45369;BME280;51342;55.250;37.668;2023-09-19T13:25:31;99740.72;;;20.56;61.52
45369;BME280;51342;55.250;37.668;2023-09-19T13:28:06;99728.44;;;20.55;61.55
45369;BME280;51342;55.250;37.668;2023-09-19T13:30:41;99731.09;;;20.57;59.41
45369;BME280;51342;55.250;37.668;2023-09-19T13:33:21;99732.84;;;20.56;59.99
45369;BME280;51342;55.250;37.668;2023-09-19T13:35:53;99732.81;;;20.55;57.69
45369;BME280;51342;55.250;37.668;2023-09-19T13:38:30;99722.25;;;20.52;59.21
45369;BME280;51342;55.250;37.668;2023-09-19T13:41:06;99724.84;;;20.50;59.83
45369;BME280;51342;55.250;37.668;2023-09-19T13:43:39;99712.50;;;20.46;59.50
45369;BME280;51342;55.250;37.668;2023-09-19T13:46:12;99709.81;;;20.43;59.56
45369;BME280;51342;55.250;37.668;2023-09-19T13:48:47;99714.13;;;20.41;59.52
45369;BME280;51342;55.250;37.668;2023-09-19T13:51:21;99715.78;;;20.36;60.10
45369;BME280;51342;55.250;37.668;2023-09-19T13:54:00;99717.53;;;20.35;60.66
45369;BME280;51342;55.250;37.668;2023-09-19T13:56:32;99723.59;;;20.31;60.29
45369;BME280;51342;55.250;37.668;2023-09-19T13:59:05;99719.13;;;20.27;61.06
45369;BME280;51342;55.250;37.668;2023-09-19T14:01:40;99716.44;;;20.24;61.57
45369;BME280;51342;55.250;37.668;2023-09-19T14:04:15;99716.41;;;20.21;62.36
45369;BME280;51342;55.250;37.668;2023-09-19T14:06:51;99710.22;;;20.19;61.96
45369;BME280;51342;55.250;37.668;2023-09-19T14:09:26;99713.69;;;20.17;61.70
45369;BME280;51342;55.250;37.668;2023-09-19T14:12:00;99716.25;;;20.13;61.96
45369;BME280;51342;55.250;37.668;2023-09-19T14:14:42;99707.47;;;20.13;62.10